sensor_id;sensor_type;location;lat;lon;timestamp;temperature;humidity
45685;DHT22;46836;48.388;16.210;2023-07-09T00:02:00;20.20;99.90
45685;DHT22;46836;48.388;16.210;2023-07-09T00:04:27;20.10;99.90
45685;DHT22;46836;48.388;16.210;2023-07-09T00:07:02;20.00;99.90
45685;DHT22;46836;48.388;16.210;2023-07-09T00:09:31;20.10;99.90
45685;DHT22;46836;48.388;16.210;2023-07-09T00:11:58;20.00;99.90
45685;DHT22;46836;48.388;16.210;2023-07-09T00:14:25;19.90;99.90
45685;DHT22;46836;48.388;16.210;2023-07-09T00:16:52;19.80;99.90
45685;DHT22;46836;48.388;16.210;2023-07-09T00:19:21;19.80;99.90
45685;DHT22;46836;48.388;16.210;2023-07-09T00:21:51;19.70;99.90
45685;DHT22;46836;48.388;16.210;2023-07-09T00:24:20;19.60;99.90
45685;DHT22;46836;48.388;16.210;2023-07-09T00:26:48;19.60;99.90
45685;DHT22;46836;48.388;16.210;2023-07-09T00:29:17;19.60;99.90
45685;DHT22;46836;48.388;16.210;2023-07-09T00:31:44;19.50;99.90
45685;DHT22;46836;48.388;16.210;2023-07-09T00:34:14;19.50;99.90
45685;DHT22;46836;48.388;16.210;2023-07-09T00:36:44;19.40;99.90
45685;DHT22;46836;48.388;16.210;2023-07-09T00:39:16;19.40;99.90
45685;DHT22;46836;48.388;16.210;2023-07-09T00:41:45;19.40;99.90
45685;DHT22;46836;48.388;16.210;2023-07-09T00:49:24;19.30;99.90
45685;DHT22;46836;48.388;16.210;2023-07-09T00:51:53;19.20;99.90
45685;DHT22;46836;48.388;16.210;2023-07-09T00:54:35;19.10;99.90
45685;DHT22;46836;48.388;16.210;2023-07-09T00:57:11;19.10;99.90
45685;DHT22;46836;48.388;16.210;2023-07-09T00:59:41;19.10;99.90
45685;DHT22;46836;48.388;16.210;2023-07-09T01:02:09;19.00;99.90
45685;DHT22;46836;48.388;16.210;2023-07-09T01:04:37;18.90;99.90
45685;DHT22;46836;48.388;16.210;2023-07-09T01:07:06;18.80;99.90
45685;DHT22;46836;48.388;16.210;2023-07-09T01:09:34;18.80;99.90
45685;DHT22;46836;48.388;16.210;2023-07-09T01:12:08;18.70;99.90
45685;DHT22;46836;48.388;16.210;2023-07-09T01:14:37;18.70;99.90
45685;DHT22;46836;48.388;16.210;2023-07-09T01:17:06;18.60;99.90
45685;DHT22;46836;48.388;16.210;2023-07-09T01:19:40;18.70;99.90
45685;DHT22;46836;48.388;16.210;2023-07-09T01:22:13;18.70;99.90
45685;DHT22;46836;48.388;16.210;2023-07-09T01:27:14;18.80;99.90
45685;DHT22;46836;48.388;16.210;2023-07-09T01:29:43;18.70;99.90
45685;DHT22;46836;48.388;16.210;2023-07-09T01:32:14;18.60;99.90
45685;DHT22;46836;48.388;16.210;2023-07-09T01:34:42;18.50;99.90
45685;DHT22;46836;48.388;16.210;2023-07-09T01:37:09;18.40;99.90
45685;DHT22;46836;48.388;16.210;2023-07-09T01:39:36;18.40;99.90
45685;DHT22;46836;48.388;16.210;2023-07-09T01:42:03;18.30;99.90
45685;DHT22;46836;48.388;16.210;2023-07-09T01:44:33;18.30;99.90
45685;DHT22;46836;48.388;16.210;2023-07-09T01:47:00;18.40;99.90
45685;DHT22;46836;48.388;16.210;2023-07-09T01:49:31;18.30;99.90
45685;DHT22;46836;48.388;16.210;2023-07-09T01:52:02;18.30;99.90
45685;DHT22;46836;48.388;16.210;2023-07-09T01:54:31;18.20;99.90
45685;DHT22;46836;48.388;16.210;2023-07-09T01:57:19;18.30;99.90
45685;DHT22;46836;48.388;16.210;2023-07-09T01:59:53;18.30;99.90
45685;DHT22;46836;48.388;16.210;2023-07-09T02:02:22;18.20;99.90
45685;DHT22;46836;48.388;16.210;2023-07-09T02:04:55;18.10;99.90
45685;DHT22;46836;48.388;16.210;2023-07-09T02:07:23;18.00;99.90
45685;DHT22;46836;48.388;16.210;2023-07-09T02:09:52;18.00;99.90
45685;DHT22;46836;48.388;16.210;2023-07-09T02:12:20;17.90;99.90
45685;DHT22;46836;48.388;16.210;2023-07-09T02:14:47;17.80;99.90
45685;DHT22;46836;48.388;16.210;2023-07-09T02:17:15;17.80;99.90
45685;DHT22;46836;48.388;16.210;2023-07-09T02:19:42;17.80;99.90
45685;DHT22;46836;48.388;16.210;2023-07-09T02:22:10;17.80;99.90
45685;DHT22;46836;48.388;16.210;2023-07-09T02:24:38;17.90;99.90
45685;DHT22;46836;48.388;16.210;2023-07-09T02:27:08;17.90;99.90
45685;DHT22;46836;48.388;16.210;2023-07-09T02:29:37;17.90;99.90
45685;DHT22;46836;48.388;16.210;2023-07-09T02:32:05;17.90;99.90
45685;DHT22;46836;48.388;16.210;2023-07-09T02:34:32;17.80;99.90
45685;DHT22;46836;48.388;16.210;2023-07-09T02:36:59;17.70;99.90
45685;DHT22;46836;48.388;16.210;2023-07-09T02:39:27;17.70;99.90
45685;DHT22;46836;48.388;16.210;2023-07-09T02:41:54;17.70;99.90
45685;DHT22;46836;48.388;16.210;2023-07-09T02:44:23;17.70;99.90
45685;DHT22;46836;48.388;16.210;2023-07-09T02:46:50;17.60;99.90
45685;DHT22;46836;48.388;16.210;2023-07-09T02:49:18;17.50;99.90
45685;DHT22;46836;48.388;16.210;2023-07-09T02:51:45;17.50;99.90
45685;DHT22;46836;48.388;16.210;2023-07-09T02:54:12;17.50;99.90
45685;DHT22;46836;48.388;16.210;2023-07-09T02:56:39;17.50;99.90
45685;DHT22;46836;48.388;16.210;2023-07-09T02:59:06;17.50;99.90
45685;DHT22;46836;48.388;16.210;2023-07-09T03:01:33;17.40;99.90
45685;DHT22;46836;48.388;16.210;2023-07-09T03:04:02;17.40;99.90
45685;DHT22;46836;48.388;16.210;2023-07-09T03:06:32;17.50;99.90
45685;DHT22;46836;48.388;16.210;2023-07-09T03:09:00;17.50;99.90
45685;DHT22;46836;48.388;16.210;2023-07-09T03:11:31;17.50;99.90
45685;DHT22;46836;48.388;16.210;2023-07-09T03:13:59;17.50;99.90
45685;DHT22;46836;48.388;16.210;2023-07-09T03:16:32;17.40;99.90
45685;DHT22;46836;48.388;16.210;2023-07-09T03:19:00;17.40;99.90
45685;DHT22;46836;48.388;16.210;2023-07-09T03:21:28;17.40;99.90
45685;DHT22;46836;48.388;16.210;2023-07-09T03:23:56;17.40;99.90
45685;DHT22;46836;48.388;16.210;2023-07-09T03:26:24;17.30;99.90
45685;DHT22;46836;48.388;16.210;2023-07-09T03:28:52;17.30;99.90
45685;DHT22;46836;48.388;16.210;2023-07-09T03:31:20;17.30;99.90
45685;DHT22;46836;48.388;16.210;2023-07-09T03:33:49;17.30;99.90
45685;DHT22;46836;48.388;16.210;2023-07-09T03:36:17;17.30;99.90
45685;DHT22;46836;48.388;16.210;2023-07-09T03:38:47;17.20;99.90
45685;DHT22;46836;48.388;16.210;2023-07-09T03:41:15;17.20;99.90
45685;DHT22;46836;48.388;16.210;2023-07-09T03:43:42;17.20;99.90
45685;DHT22;46836;48.388;16.210;2023-07-09T03:46:09;17.20;99.90
45685;DHT22;46836;48.388;16.210;2023-07-09T03:48:36;17.20;99.90
45685;DHT22;46836;48.388;16.210;2023-07-09T03:51:04;17.20;99.90
45685;DHT22;46836;48.388;16.210;2023-07-09T03:53:31;17.20;99.90
45685;DHT22;46836;48.388;16.210;2023-07-09T03:55:58;17.30;99.90
45685;DHT22;46836;48.388;16.210;2023-07-09T03:58:27;17.30;99.90
45685;DHT22;46836;48.388;16.210;2023-07-09T04:00:55;17.30;99.90
45685;DHT22;46836;48.388;16.210;2023-07-09T04:03:22;17.30;99.90
45685;DHT22;46836;48.388;16.210;2023-07-09T04:05:50;17.40;99.90
45685;DHT22;46836;48.388;16.210;2023-07-09T04:08:17;17.40;99.90
45685;DHT22;46836;48.388;16.210;2023-07-09T04:10:44;17.40;99.90
45685;DHT22;46836;48.388;16.210;2023-07-09T04:13:12;17.40;99.90
45685;DHT22;46836;48.388;16.210;2023-07-09T04:15:39;17.40;99.90
45685;DHT22;46836;48.388;16.210;2023-07-09T04:18:06;17.50;99.90
45685;DHT22;46836;48.388;16.210;2023-07-09T04:20:33;17.60;99.90
45685;DHT22;46836;48.388;16.210;2023-07-09T04:23:02;17.60;99.90
45685;DHT22;46836;48.388;16.210;2023-07-09T04:25:29;17.70;99.90
45685;DHT22;46836;48.388;16.210;2023-07-09T04:27:56;17.70;99.90
45685;DHT22;46836;48.388;16.210;2023-07-09T04:30:23;17.80;99.90
45685;DHT22;46836;48.388;16.210;2023-07-09T04:32:51;17.80;99.90
45685;DHT22;46836;48.388;16.210;2023-07-09T04:35:18;17.90;99.90
45685;DHT22;46836;48.388;16.210;2023-07-09T04:37:45;17.90;99.90
45685;DHT22;46836;48.388;16.210;2023-07-09T04:40:13;17.90;99.90
45685;DHT22;46836;48.388;16.210;2023-07-09T04:42:40;18.00;99.90
45685;DHT22;46836;48.388;16.210;2023-07-09T04:45:10;18.00;99.90
45685;DHT22;46836;48.388;16.210;2023-07-09T04:47:38;18.10;99.90
45685;DHT22;46836;48.388;16.210;2023-07-09T04:50:07;18.10;99.90
45685;DHT22;46836;48.388;16.210;2023-07-09T04:52:34;18.20;99.90
45685;DHT22;46836;48.388;16.210;2023-07-09T04:55:02;18.30;99.90
45685;DHT22;46836;48.388;16.210;2023-07-09T04:57:29;18.40;99.90
45685;DHT22;46836;48.388;16.210;2023-07-09T04:59:56;18.50;99.90
45685;DHT22;46836;48.388;16.210;2023-07-09T05:02:23;18.60;99.90
45685;DHT22;46836;48.388;16.210;2023-07-09T05:04:51;18.70;99.90
45685;DHT22;46836;48.388;16.210;2023-07-09T05:07:18;18.70;99.90
45685;DHT22;46836;48.388;16.210;2023-07-09T05:09:45;18.80;99.90
45685;DHT22;46836;48.388;16.210;2023-07-09T05:12:12;18.90;99.90
45685;DHT22;46836;48.388;16.210;2023-07-09T05:14:40;19.10;99.90
45685;DHT22;46836;48.388;16.210;2023-07-09T05:17:08;19.30;99.90
45685;DHT22;46836;48.388;16.210;2023-07-09T05:19:35;19.50;99.90
45685;DHT22;46836;48.388;16.210;2023-07-09T05:22:03;19.60;99.90
45685;DHT22;46836;48.388;16.210;2023-07-09T05:24:30;19.80;99.90
45685;DHT22;46836;48.388;16.210;2023-07-09T05:26:57;20.00;99.90
45685;DHT22;46836;48.388;16.210;2023-07-09T05:29:24;20.10;99.90
45685;DHT22;46836;48.388;16.210;2023-07-09T05:31:52;20.10;99.90
45685;DHT22;46836;48.388;16.210;2023-07-09T05:34:19;20.20;99.90
45685;DHT22;46836;48.388;16.210;2023-07-09T05:36:46;20.30;99.90
45685;DHT22;46836;48.388;16.210;2023-07-09T05:39:13;20.30;99.90
45685;DHT22;46836;48.388;16.210;2023-07-09T05:41:40;20.40;99.90
45685;DHT22;46836;48.388;16.210;2023-07-09T05:44:07;20.40;99.90
45685;DHT22;46836;48.388;16.210;2023-07-09T05:46:36;20.40;99.90
45685;DHT22;46836;48.388;16.210;2023-07-09T05:49:05;20.60;99.90
45685;DHT22;46836;48.388;16.210;2023-07-09T05:51:33;20.60;99.90
45685;DHT22;46836;48.388;16.210;2023-07-09T05:54:00;20.70;99.90
45685;DHT22;46836;48.388;16.210;2023-07-09T05:56:27;20.70;99.90
45685;DHT22;46836;48.388;16.210;2023-07-09T05:58:55;20.70;99.90
45685;DHT22;46836;48.388;16.210;2023-07-09T06:01:23;20.70;99.90
45685;DHT22;46836;48.388;16.210;2023-07-09T06:03:51;20.80;99.90
45685;DHT22;46836;48.388;16.210;2023-07-09T06:06:19;20.90;99.90
45685;DHT22;46836;48.388;16.210;2023-07-09T06:08:46;20.90;99.90
45685;DHT22;46836;48.388;16.210;2023-07-09T06:11:13;20.90;99.90
45685;DHT22;46836;48.388;16.210;2023-07-09T06:13:40;21.00;99.90
45685;DHT22;46836;48.388;16.210;2023-07-09T06:16:08;21.20;99.90
45685;DHT22;46836;48.388;16.210;2023-07-09T06:18:35;21.20;99.90
45685;DHT22;46836;48.388;16.210;2023-07-09T06:21:03;21.30;99.90
45685;DHT22;46836;48.388;16.210;2023-07-09T06:23:30;21.40;99.90
45685;DHT22;46836;48.388;16.210;2023-07-09T06:25:58;21.60;99.90
45685;DHT22;46836;48.388;16.210;2023-07-09T06:28:27;21.70;99.90
45685;DHT22;46836;48.388;16.210;2023-07-09T06:30:56;21.70;99.90
45685;DHT22;46836;48.388;16.210;2023-07-09T06:33:25;21.80;99.90
45685;DHT22;46836;48.388;16.210;2023-07-09T06:35:55;21.90;99.90
45685;DHT22;46836;48.388;16.210;2023-07-09T06:38:23;21.90;99.90
45685;DHT22;46836;48.388;16.210;2023-07-09T06:40:50;22.00;99.90
45685;DHT22;46836;48.388;16.210;2023-07-09T06:43:17;22.10;99.90
45685;DHT22;46836;48.388;16.210;2023-07-09T06:48:18;22.40;99.90
45685;DHT22;46836;48.388;16.210;2023-07-09T06:50:46;22.40;99.90
45685;DHT22;46836;48.388;16.210;2023-07-09T06:53:13;22.60;99.90
45685;DHT22;46836;48.388;16.210;2023-07-09T06:55:40;22.60;99.90
45685;DHT22;46836;48.388;16.210;2023-07-09T06:58:08;22.70;99.90
45685;DHT22;46836;48.388;16.210;2023-07-09T07:00:36;22.70;99.90
45685;DHT22;46836;48.388;16.210;2023-07-09T07:03:04;22.80;99.90
45685;DHT22;46836;48.388;16.210;2023-07-09T07:05:32;22.90;99.90
45685;DHT22;46836;48.388;16.210;2023-07-09T07:08:00;22.90;99.90
45685;DHT22;46836;48.388;16.210;2023-07-09T07:10:27;23.00;99.90
45685;DHT22;46836;48.388;16.210;2023-07-09T07:12:54;23.10;99.90
45685;DHT22;46836;48.388;16.210;2023-07-09T07:15:22;23.20;99.90
45685;DHT22;46836;48.388;16.210;2023-07-09T07:17:49;23.20;99.90
45685;DHT22;46836;48.388;16.210;2023-07-09T07:20:16;23.30;99.90
45685;DHT22;46836;48.388;16.210;2023-07-09T07:22:43;23.40;99.90
45685;DHT22;46836;48.388;16.210;2023-07-09T07:25:11;23.50;99.90
45685;DHT22;46836;48.388;16.210;2023-07-09T07:27:39;23.60;99.90
45685;DHT22;46836;48.388;16.210;2023-07-09T07:30:07;23.80;99.90
45685;DHT22;46836;48.388;16.210;2023-07-09T07:32:38;23.90;99.90
45685;DHT22;46836;48.388;16.210;2023-07-09T07:35:05;24.00;99.90
45685;DHT22;46836;48.388;16.210;2023-07-09T07:37:33;24.10;99.90
45685;DHT22;46836;48.388;16.210;2023-07-09T07:40:00;24.20;99.90
45685;DHT22;46836;48.388;16.210;2023-07-09T07:42:27;24.30;99.90
45685;DHT22;46836;48.388;16.210;2023-07-09T07:44:54;24.40;99.90
45685;DHT22;46836;48.388;16.210;2023-07-09T07:47:22;24.50;99.90
45685;DHT22;46836;48.388;16.210;2023-07-09T07:49:49;24.60;99.90
45685;DHT22;46836;48.388;16.210;2023-07-09T07:52:16;24.70;99.90
45685;DHT22;46836;48.388;16.210;2023-07-09T07:54:44;24.80;99.90
45685;DHT22;46836;48.388;16.210;2023-07-09T07:57:12;24.90;99.90
45685;DHT22;46836;48.388;16.210;2023-07-09T07:59:39;25.00;99.90
45685;DHT22;46836;48.388;16.210;2023-07-09T08:02:10;25.00;99.90
45685;DHT22;46836;48.388;16.210;2023-07-09T08:04:39;25.10;99.90
45685;DHT22;46836;48.388;16.210;2023-07-09T08:07:08;25.20;99.90
45685;DHT22;46836;48.388;16.210;2023-07-09T08:09:36;25.30;99.90
45685;DHT22;46836;48.388;16.210;2023-07-09T08:12:04;25.40;99.90
45685;DHT22;46836;48.388;16.210;2023-07-09T08:14:42;25.50;99.90
45685;DHT22;46836;48.388;16.210;2023-07-09T08:17:11;25.60;99.90
45685;DHT22;46836;48.388;16.210;2023-07-09T08:20:05;25.70;99.90
45685;DHT22;46836;48.388;16.210;2023-07-09T08:22:32;25.80;99.90
45685;DHT22;46836;48.388;16.210;2023-07-09T08:24:59;25.90;99.90
45685;DHT22;46836;48.388;16.210;2023-07-09T08:27:26;26.00;99.90
45685;DHT22;46836;48.388;16.210;2023-07-09T08:29:53;26.10;99.90
45685;DHT22;46836;48.388;16.210;2023-07-09T08:32:20;26.20;99.90
45685;DHT22;46836;48.388;16.210;2023-07-09T08:34:47;26.30;99.90
45685;DHT22;46836;48.388;16.210;2023-07-09T08:37:34;26.40;99.90
45685;DHT22;46836;48.388;16.210;2023-07-09T08:40:03;26.50;99.90
45685;DHT22;46836;48.388;16.210;2023-07-09T08:42:42;26.60;99.90
45685;DHT22;46836;48.388;16.210;2023-07-09T08:45:50;26.70;99.90
45685;DHT22;46836;48.388;16.210;2023-07-09T08:48:31;26.80;99.90
45685;DHT22;46836;48.388;16.210;2023-07-09T08:53:54;27.10;99.90
45685;DHT22;46836;48.388;16.210;2023-07-09T08:56:25;27.20;99.90
45685;DHT22;46836;48.388;16.210;2023-07-09T08:58:55;27.20;99.90
45685;DHT22;46836;48.388;16.210;2023-07-09T09:01:27;27.30;99.90
45685;DHT22;46836;48.388;16.210;2023-07-09T09:04:24;27.40;99.90
45685;DHT22;46836;48.388;16.210;2023-07-09T09:09:39;27.50;99.90
45685;DHT22;46836;48.388;16.210;2023-07-09T09:12:21;27.70;99.90
45685;DHT22;46836;48.388;16.210;2023-07-09T09:14:57;27.80;99.90
45685;DHT22;46836;48.388;16.210;2023-07-09T09:17:26;27.80;99.90
45685;DHT22;46836;48.388;16.210;2023-07-09T09:20:06;27.90;99.90
45685;DHT22;46836;48.388;16.210;2023-07-09T09:25:37;28.20;99.90
45685;DHT22;46836;48.388;16.210;2023-07-09T09:28:04;28.20;99.90
45685;DHT22;46836;48.388;16.210;2023-07-09T09:30:31;28.30;99.90
45685;DHT22;46836;48.388;16.210;2023-07-09T09:33:07;28.40;99.90
45685;DHT22;46836;48.388;16.210;2023-07-09T09:35:41;28.60;99.90
45685;DHT22;46836;48.388;16.210;2023-07-09T09:38:15;28.60;99.90
45685;DHT22;46836;48.388;16.210;2023-07-09T09:40:43;28.70;99.90
45685;DHT22;46836;48.388;16.210;2023-07-09T09:43:18;28.70;99.90
45685;DHT22;46836;48.388;16.210;2023-07-09T09:45:50;28.80;99.90
45685;DHT22;46836;48.388;16.210;2023-07-09T09:48:28;28.90;99.90
45685;DHT22;46836;48.388;16.210;2023-07-09T09:50:58;29.10;99.90
45685;DHT22;46836;48.388;16.210;2023-07-09T09:53:34;29.20;99.90
45685;DHT22;46836;48.388;16.210;2023-07-09T09:56:06;29.30;99.90
45685;DHT22;46836;48.388;16.210;2023-07-09T09:58:35;29.40;99.90
45685;DHT22;46836;48.388;16.210;2023-07-09T10:01:16;29.40;98.50
45685;DHT22;46836;48.388;16.210;2023-07-09T10:03:46;29.50;98.40
45685;DHT22;46836;48.388;16.210;2023-07-09T10:06:20;29.60;97.20
45685;DHT22;46836;48.388;16.210;2023-07-09T10:11:58;29.70;92.50
45685;DHT22;46836;48.388;16.210;2023-07-09T10:23:19;30.00;93.50
45685;DHT22;46836;48.388;16.210;2023-07-09T10:31:50;30.20;91.00
45685;DHT22;46836;48.388;16.210;2023-07-09T10:39:58;30.50;91.60
45685;DHT22;46836;48.388;16.210;2023-07-09T10:45:07;30.50;92.70
45685;DHT22;46836;48.388;16.210;2023-07-09T10:47:45;30.60;92.10
45685;DHT22;46836;48.388;16.210;2023-07-09T10:50:30;30.70;91.00
45685;DHT22;46836;48.388;16.210;2023-07-09T10:53:05;30.70;90.20
45685;DHT22;46836;48.388;16.210;2023-07-09T11:00:48;30.80;90.50
45685;DHT22;46836;48.388;16.210;2023-07-09T11:05:58;30.90;89.40
45685;DHT22;46836;48.388;16.210;2023-07-09T11:08:36;30.90;90.00
45685;DHT22;46836;48.388;16.210;2023-07-09T11:11:14;31.00;88.20
45685;DHT22;46836;48.388;16.210;2023-07-09T11:13:53;31.10;87.70
45685;DHT22;46836;48.388;16.210;2023-07-09T11:16:32;31.10;85.90
45685;DHT22;46836;48.388;16.210;2023-07-09T11:19:02;31.20;80.90
45685;DHT22;46836;48.388;16.210;2023-07-09T11:21:30;31.30;86.10
45685;DHT22;46836;48.388;16.210;2023-07-09T11:23:59;31.30;83.20
45685;DHT22;46836;48.388;16.210;2023-07-09T11:26:28;31.40;81.50
45685;DHT22;46836;48.388;16.210;2023-07-09T11:29:14;31.50;81.00
45685;DHT22;46836;48.388;16.210;2023-07-09T11:31:46;31.50;79.40
45685;DHT22;46836;48.388;16.210;2023-07-09T11:36:58;31.80;83.60
45685;DHT22;46836;48.388;16.210;2023-07-09T11:39:31;31.90;80.40
45685;DHT22;46836;48.388;16.210;2023-07-09T11:41:59;32.00;81.60
45685;DHT22;46836;48.388;16.210;2023-07-09T11:44:31;32.10;81.60
45685;DHT22;46836;48.388;16.210;2023-07-09T11:50:01;32.20;82.30
45685;DHT22;46836;48.388;16.210;2023-07-09T11:52:50;32.20;73.30
45685;DHT22;46836;48.388;16.210;2023-07-09T11:55:28;32.20;77.00
45685;DHT22;46836;48.388;16.210;2023-07-09T11:58:01;32.20;75.30
45685;DHT22;46836;48.388;16.210;2023-07-09T12:00:37;32.30;74.30
45685;DHT22;46836;48.388;16.210;2023-07-09T12:03:06;32.40;75.50
45685;DHT22;46836;48.388;16.210;2023-07-09T12:05:34;32.50;75.60
45685;DHT22;46836;48.388;16.210;2023-07-09T12:08:02;32.60;75.50
45685;DHT22;46836;48.388;16.210;2023-07-09T12:10:35;32.60;74.30
45685;DHT22;46836;48.388;16.210;2023-07-09T12:13:03;32.70;73.20
45685;DHT22;46836;48.388;16.210;2023-07-09T12:15:31;32.70;71.60
45685;DHT22;46836;48.388;16.210;2023-07-09T12:18:08;32.70;73.00
45685;DHT22;46836;48.388;16.210;2023-07-09T12:20:37;32.80;72.50
45685;DHT22;46836;48.388;16.210;2023-07-09T12:23:27;32.80;73.90
45685;DHT22;46836;48.388;16.210;2023-07-09T12:25:55;32.90;71.90
45685;DHT22;46836;48.388;16.210;2023-07-09T12:28:26;32.90;72.80
45685;DHT22;46836;48.388;16.210;2023-07-09T12:30:54;32.90;73.60
45685;DHT22;46836;48.388;16.210;2023-07-09T12:33:24;33.00;73.30
45685;DHT22;46836;48.388;16.210;2023-07-09T12:36:04;33.10;73.20
45685;DHT22;46836;48.388;16.210;2023-07-09T12:38:43;33.10;69.80
45685;DHT22;46836;48.388;16.210;2023-07-09T12:41:43;33.20;67.80
45685;DHT22;46836;48.388;16.210;2023-07-09T12:44:18;33.20;67.50
45685;DHT22;46836;48.388;16.210;2023-07-09T12:46:48;33.20;68.60
45685;DHT22;46836;48.388;16.210;2023-07-09T12:51:50;33.20;66.30
45685;DHT22;46836;48.388;16.210;2023-07-09T12:54:19;33.30;68.10
45685;DHT22;46836;48.388;16.210;2023-07-09T12:56:51;33.40;68.30
45685;DHT22;46836;48.388;16.210;2023-07-09T12:59:21;33.50;69.50
45685;DHT22;46836;48.388;16.210;2023-07-09T13:04:38;33.60;68.20
45685;DHT22;46836;48.388;16.210;2023-07-09T13:07:26;33.70;67.20
45685;DHT22;46836;48.388;16.210;2023-07-09T13:09:55;33.70;67.80
45685;DHT22;46836;48.388;16.210;2023-07-09T13:12:32;33.80;68.30
45685;DHT22;46836;48.388;16.210;2023-07-09T13:15:00;33.80;64.60
45685;DHT22;46836;48.388;16.210;2023-07-09T13:17:31;33.80;65.50
45685;DHT22;46836;48.388;16.210;2023-07-09T13:19:58;33.80;64.00
45685;DHT22;46836;48.388;16.210;2023-07-09T13:22:28;33.90;66.00
45685;DHT22;46836;48.388;16.210;2023-07-09T13:24:55;33.90;65.30
45685;DHT22;46836;48.388;16.210;2023-07-09T13:27:23;33.90;68.50
45685;DHT22;46836;48.388;16.210;2023-07-09T13:29:51;34.00;65.40
45685;DHT22;46836;48.388;16.210;2023-07-09T13:32:18;34.00;64.70
45685;DHT22;46836;48.388;16.210;2023-07-09T13:34:45;34.00;66.10
45685;DHT22;46836;48.388;16.210;2023-07-09T13:37:15;34.00;64.70
45685;DHT22;46836;48.388;16.210;2023-07-09T13:39:43;34.10;65.20
45685;DHT22;46836;48.388;16.210;2023-07-09T13:42:16;34.10;65.00
45685;DHT22;46836;48.388;16.210;2023-07-09T13:44:45;34.10;62.30
45685;DHT22;46836;48.388;16.210;2023-07-09T13:47:14;34.20;65.10
45685;DHT22;46836;48.388;16.210;2023-07-09T13:49:45;34.20;62.20
45685;DHT22;46836;48.388;16.210;2023-07-09T13:52:21;34.20;61.90
45685;DHT22;46836;48.388;16.210;2023-07-09T13:54:50;34.20;59.90
45685;DHT22;46836;48.388;16.210;2023-07-09T13:57:19;34.20;61.80
45685;DHT22;46836;48.388;16.210;2023-07-09T13:59:49;34.20;61.80
45685;DHT22;46836;48.388;16.210;2023-07-09T14:02:23;34.30;61.20
45685;DHT22;46836;48.388;16.210;2023-07-09T14:04:52;34.30;61.00
45685;DHT22;46836;48.388;16.210;2023-07-09T14:07:28;34.40;61.60
45685;DHT22;46836;48.388;16.210;2023-07-09T14:09:56;34.40;59.70
45685;DHT22;46836;48.388;16.210;2023-07-09T14:12:24;34.40;61.00
45685;DHT22;46836;48.388;16.210;2023-07-09T14:14:52;34.40;59.80
45685;DHT22;46836;48.388;16.210;2023-07-09T14:17:20;34.40;60.00
45685;DHT22;46836;48.388;16.210;2023-07-09T14:19:49;34.40;60.20
45685;DHT22;46836;48.388;16.210;2023-07-09T14:22:23;34.40;59.80
45685;DHT22;46836;48.388;16.210;2023-07-09T14:24:52;34.40;59.70
45685;DHT22;46836;48.388;16.210;2023-07-09T14:27:19;34.40;61.90
45685;DHT22;46836;48.388;16.210;2023-07-09T14:29:47;34.40;59.60
45685;DHT22;46836;48.388;16.210;2023-07-09T14:32:33;34.40;60.80
45685;DHT22;46836;48.388;16.210;2023-07-09T14:35:03;34.40;61.20
45685;DHT22;46836;48.388;16.210;2023-07-09T14:37:30;34.40;61.60
45685;DHT22;46836;48.388;16.210;2023-07-09T14:39:58;34.40;61.20
45685;DHT22;46836;48.388;16.210;2023-07-09T14:42:25;34.40;61.20
45685;DHT22;46836;48.388;16.210;2023-07-09T14:44:52;34.40;60.00
45685;DHT22;46836;48.388;16.210;2023-07-09T14:47:21;34.40;59.80
45685;DHT22;46836;48.388;16.210;2023-07-09T14:49:49;34.40;60.80
45685;DHT22;46836;48.388;16.210;2023-07-09T14:52:20;34.50;60.90
45685;DHT22;46836;48.388;16.210;2023-07-09T14:54:48;34.40;60.50
45685;DHT22;46836;48.388;16.210;2023-07-09T14:57:24;34.40;60.40
45685;DHT22;46836;48.388;16.210;2023-07-09T14:59:53;34.50;59.50
45685;DHT22;46836;48.388;16.210;2023-07-09T15:02:36;34.50;59.00
45685;DHT22;46836;48.388;16.210;2023-07-09T15:05:13;34.50;59.50
45685;DHT22;46836;48.388;16.210;2023-07-09T15:07:40;34.50;58.70
45685;DHT22;46836;48.388;16.210;2023-07-09T15:10:12;34.50;60.10
45685;DHT22;46836;48.388;16.210;2023-07-09T15:12:41;34.50;59.80
45685;DHT22;46836;48.388;16.210;2023-07-09T15:17:46;34.50;60.40
45685;DHT22;46836;48.388;16.210;2023-07-09T15:20:19;34.50;59.40
45685;DHT22;46836;48.388;16.210;2023-07-09T15:22:46;34.50;59.20
45685;DHT22;46836;48.388;16.210;2023-07-09T15:25:19;34.50;59.00
45685;DHT22;46836;48.388;16.210;2023-07-09T15:27:47;34.50;58.80
45685;DHT22;46836;48.388;16.210;2023-07-09T15:30:20;34.50;59.40
45685;DHT22;46836;48.388;16.210;2023-07-09T15:32:49;34.50;59.90
45685;DHT22;46836;48.388;16.210;2023-07-09T15:35:19;34.50;60.30
45685;DHT22;46836;48.388;16.210;2023-07-09T15:37:47;34.50;61.40
45685;DHT22;46836;48.388;16.210;2023-07-09T15:40:25;34.50;61.00
45685;DHT22;46836;48.388;16.210;2023-07-09T15:43:05;34.50;60.60
45685;DHT22;46836;48.388;16.210;2023-07-09T15:45:32;34.50;59.00
45685;DHT22;46836;48.388;16.210;2023-07-09T15:47:59;34.40;60.40
45685;DHT22;46836;48.388;16.210;2023-07-09T15:50:27;34.40;59.90
45685;DHT22;46836;48.388;16.210;2023-07-09T15:52:54;34.40;59.40
45685;DHT22;46836;48.388;16.210;2023-07-09T15:55:23;34.40;59.10
45685;DHT22;46836;48.388;16.210;2023-07-09T15:57:53;34.40;59.40
45685;DHT22;46836;48.388;16.210;2023-07-09T16:00:24;34.40;60.00
45685;DHT22;46836;48.388;16.210;2023-07-09T16:02:53;34.40;60.40
45685;DHT22;46836;48.388;16.210;2023-07-09T16:05:40;34.40;61.70
45685;DHT22;46836;48.388;16.210;2023-07-09T16:08:07;34.40;61.30
45685;DHT22;46836;48.388;16.210;2023-07-09T16:10:34;34.40;61.50
45685;DHT22;46836;48.388;16.210;2023-07-09T16:13:02;34.30;63.00
45685;DHT22;46836;48.388;16.210;2023-07-09T16:15:29;34.30;62.30
45685;DHT22;46836;48.388;16.210;2023-07-09T16:17:56;34.20;63.30
45685;DHT22;46836;48.388;16.210;2023-07-09T16:20:26;34.20;63.10
45685;DHT22;46836;48.388;16.210;2023-07-09T16:22:55;34.10;64.00
45685;DHT22;46836;48.388;16.210;2023-07-09T16:25:34;34.10;63.80
45685;DHT22;46836;48.388;16.210;2023-07-09T16:28:02;34.00;64.10
45685;DHT22;46836;48.388;16.210;2023-07-09T16:30:30;34.00;65.00
45685;DHT22;46836;48.388;16.210;2023-07-09T16:32:58;34.00;63.70
45685;DHT22;46836;48.388;16.210;2023-07-09T16:35:27;33.90;64.40
45685;DHT22;46836;48.388;16.210;2023-07-09T16:37:55;33.90;63.00
45685;DHT22;46836;48.388;16.210;2023-07-09T16:40:27;33.80;62.00